sensor_id;sensor_type;location;lat;lon;timestamp;temperature;humidity
13389;DHT22;6764;53.250;10.410;2024-01-27T00:01:32;7.00;99.90
13389;DHT22;6764;53.250;10.410;2024-01-27T00:03:58;7.10;99.90
13389;DHT22;6764;53.250;10.410;2024-01-27T00:06:23;7.10;99.90
13389;DHT22;6764;53.250;10.410;2024-01-27T00:08:49;7.10;99.90
13389;DHT22;6764;53.250;10.410;2024-01-27T00:11:15;7.00;99.90
13389;DHT22;6764;53.250;10.410;2024-01-27T00:13:40;7.00;99.90
13389;DHT22;6764;53.250;10.410;2024-01-27T00:16:06;7.10;99.90
13389;DHT22;6764;53.250;10.410;2024-01-27T00:18:32;7.10;99.90
13389;DHT22;6764;53.250;10.410;2024-01-27T00:20:58;7.10;99.90
13389;DHT22;6764;53.250;10.410;2024-01-27T00:23:23;7.00;99.90
13389;DHT22;6764;53.250;10.410;2024-01-27T00:25:49;6.90;99.90
13389;DHT22;6764;53.250;10.410;2024-01-27T00:28:14;7.00;99.90
13389;DHT22;6764;53.250;10.410;2024-01-27T00:30:40;7.00;99.90
13389;DHT22;6764;53.250;10.410;2024-01-27T00:33:06;7.00;99.90
13389;DHT22;6764;53.250;10.410;2024-01-27T00:35:31;6.90;99.90
13389;DHT22;6764;53.250;10.410;2024-01-27T00:37:57;6.90;99.90
13389;DHT22;6764;53.250;10.410;2024-01-27T00:40:23;6.90;99.90
13389;DHT22;6764;53.250;10.410;2024-01-27T00:42:49;7.00;99.90
13389;DHT22;6764;53.250;10.410;2024-01-27T00:45:14;7.00;99.90
13389;DHT22;6764;53.250;10.410;2024-01-27T00:47:40;7.00;99.90
13389;DHT22;6764;53.250;10.410;2024-01-27T00:50:05;7.00;99.90
13389;DHT22;6764;53.250;10.410;2024-01-27T00:52:34;7.10;99.90
13389;DHT22;6764;53.250;10.410;2024-01-27T00:54:59;7.20;99.90
13389;DHT22;6764;53.250;10.410;2024-01-27T00:57:25;7.10;99.90
13389;DHT22;6764;53.250;10.410;2024-01-27T00:59:51;7.10;99.90
13389;DHT22;6764;53.250;10.410;2024-01-27T01:02:16;7.20;99.90
13389;DHT22;6764;53.250;10.410;2024-01-27T01:04:42;7.00;99.90
13389;DHT22;6764;53.250;10.410;2024-01-27T01:07:07;7.10;99.90
13389;DHT22;6764;53.250;10.410;2024-01-27T01:09:33;7.20;99.90
13389;DHT22;6764;53.250;10.410;2024-01-27T01:11:59;7.30;99.90
13389;DHT22;6764;53.250;10.410;2024-01-27T01:14:25;7.10;99.90
13389;DHT22;6764;53.250;10.410;2024-01-27T01:16:50;7.20;99.90
13389;DHT22;6764;53.250;10.410;2024-01-27T01:19:16;7.30;99.90
13389;DHT22;6764;53.250;10.410;2024-01-27T01:21:42;7.30;99.90
13389;DHT22;6764;53.250;10.410;2024-01-27T01:24:07;7.30;99.90
13389;DHT22;6764;53.250;10.410;2024-01-27T01:26:33;7.20;99.90
13389;DHT22;6764;53.250;10.410;2024-01-27T01:28:58;7.20;99.90
13389;DHT22;6764;53.250;10.410;2024-01-27T01:31:24;7.20;99.90
13389;DHT22;6764;53.250;10.410;2024-01-27T01:33:50;7.20;99.90
13389;DHT22;6764;53.250;10.410;2024-01-27T01:36:15;7.20;99.90
13389;DHT22;6764;53.250;10.410;2024-01-27T01:38:41;7.30;99.90
13389;DHT22;6764;53.250;10.410;2024-01-27T01:41:06;7.40;99.90
13389;DHT22;6764;53.250;10.410;2024-01-27T01:43:32;7.60;99.90
13389;DHT22;6764;53.250;10.410;2024-01-27T01:45:58;7.60;99.90
13389;DHT22;6764;53.250;10.410;2024-01-27T01:48:24;7.60;99.90
13389;DHT22;6764;53.250;10.410;2024-01-27T01:50:49;7.50;99.90
13389;DHT22;6764;53.250;10.410;2024-01-27T01:53:15;7.40;99.90
13389;DHT22;6764;53.250;10.410;2024-01-27T01:55:41;7.40;99.90
13389;DHT22;6764;53.250;10.410;2024-01-27T01:58:07;7.40;99.90
13389;DHT22;6764;53.250;10.410;2024-01-27T02:00:32;7.40;99.90
13389;DHT22;6764;53.250;10.410;2024-01-27T02:02:58;7.50;99.90
13389;DHT22;6764;53.250;10.410;2024-01-27T02:05:24;7.40;99.90
13389;DHT22;6764;53.250;10.410;2024-01-27T02:07:50;7.40;99.90
13389;DHT22;6764;53.250;10.410;2024-01-27T02:10:17;7.40;99.90
13389;DHT22;6764;53.250;10.410;2024-01-27T02:12:44;7.40;99.90
13389;DHT22;6764;53.250;10.410;2024-01-27T02:15:13;7.40;99.90
13389;DHT22;6764;53.250;10.410;2024-01-27T02:17:39;7.50;99.90
13389;DHT22;6764;53.250;10.410;2024-01-27T02:20:06;7.60;99.90
13389;DHT22;6764;53.250;10.410;2024-01-27T02:22:33;7.60;99.90
13389;DHT22;6764;53.250;10.410;2024-01-27T02:25:03;7.70;99.90
13389;DHT22;6764;53.250;10.410;2024-01-27T02:27:29;7.60;99.90
13389;DHT22;6764;53.250;10.410;2024-01-27T02:29:54;7.60;99.90
13389;DHT22;6764;53.250;10.410;2024-01-27T02:32:20;7.60;99.90
13389;DHT22;6764;53.250;10.410;2024-01-27T02:34:46;7.40;99.90
13389;DHT22;6764;53.250;10.410;2024-01-27T02:37:12;7.50;99.90
13389;DHT22;6764;53.250;10.410;2024-01-27T02:39:37;7.50;99.90
13389;DHT22;6764;53.250;10.410;2024-01-27T02:42:03;7.50;99.90
13389;DHT22;6764;53.250;10.410;2024-01-27T02:44:29;7.50;99.90
13389;DHT22;6764;53.250;10.410;2024-01-27T02:46:54;7.60;99.90
13389;DHT22;6764;53.250;10.410;2024-01-27T02:49:20;7.60;99.90
13389;DHT22;6764;53.250;10.410;2024-01-27T02:51:46;7.60;99.90
13389;DHT22;6764;53.250;10.410;2024-01-27T02:54:13;7.60;99.90
13389;DHT22;6764;53.250;10.410;2024-01-27T02:56:38;7.50;99.90
13389;DHT22;6764;53.250;10.410;2024-01-27T02:59:04;7.40;99.90
13389;DHT22;6764;53.250;10.410;2024-01-27T03:01:30;7.50;99.90
13389;DHT22;6764;53.250;10.410;2024-01-27T03:03:55;7.60;99.90
13389;DHT22;6764;53.250;10.410;2024-01-27T03:06:21;7.60;99.90
13389;DHT22;6764;53.250;10.410;2024-01-27T03:08:46;7.60;99.90
13389;DHT22;6764;53.250;10.410;2024-01-27T03:11:12;7.50;99.90
13389;DHT22;6764;53.250;10.410;2024-01-27T03:13:38;7.60;99.90
13389;DHT22;6764;53.250;10.410;2024-01-27T03:16:10;7.60;99.90
13389;DHT22;6764;53.250;10.410;2024-01-27T03:18:36;7.60;99.90
13389;DHT22;6764;53.250;10.410;2024-01-27T03:21:03;7.60;99.90
13389;DHT22;6764;53.250;10.410;2024-01-27T03:23:28;7.50;99.90
13389;DHT22;6764;53.250;10.410;2024-01-27T03:25:54;7.60;99.90
13389;DHT22;6764;53.250;10.410;2024-01-27T03:28:20;7.70;99.90
13389;DHT22;6764;53.250;10.410;2024-01-27T03:30:46;7.70;99.90
13389;DHT22;6764;53.250;10.410;2024-01-27T03:33:11;7.60;99.90
13389;DHT22;6764;53.250;10.410;2024-01-27T03:35:39;7.60;99.90
13389;DHT22;6764;53.250;10.410;2024-01-27T03:38:05;7.60;99.90
13389;DHT22;6764;53.250;10.410;2024-01-27T03:40:31;7.50;99.90
13389;DHT22;6764;53.250;10.410;2024-01-27T03:42:57;7.40;99.90
13389;DHT22;6764;53.250;10.410;2024-01-27T03:45:22;7.60;99.90
13389;DHT22;6764;53.250;10.410;2024-01-27T03:47:48;7.50;99.90
13389;DHT22;6764;53.250;10.410;2024-01-27T03:50:14;7.50;99.90
13389;DHT22;6764;53.250;10.410;2024-01-27T03:52:39;7.60;99.90
13389;DHT22;6764;53.250;10.410;2024-01-27T03:55:05;7.70;99.90
13389;DHT22;6764;53.250;10.410;2024-01-27T03:57:31;7.80;99.90
13389;DHT22;6764;53.250;10.410;2024-01-27T03:59:56;7.80;99.90
13389;DHT22;6764;53.250;10.410;2024-01-27T04:02:22;7.70;99.90
13389;DHT22;6764;53.250;10.410;2024-01-27T04:04:48;7.80;99.90
13389;DHT22;6764;53.250;10.410;2024-01-27T04:07:13;7.70;99.90
13389;DHT22;6764;53.250;10.410;2024-01-27T04:09:39;7.60;99.90
13389;DHT22;6764;53.250;10.410;2024-01-27T04:12:05;7.50;99.90
13389;DHT22;6764;53.250;10.410;2024-01-27T04:14:31;7.30;99.90
13389;DHT22;6764;53.250;10.410;2024-01-27T04:16:56;7.40;99.90
13389;DHT22;6764;53.250;10.410;2024-01-27T04:19:22;7.30;99.90
13389;DHT22;6764;53.250;10.410;2024-01-27T04:21:47;7.30;99.90
13389;DHT22;6764;53.250;10.410;2024-01-27T04:24:13;7.30;99.90
13389;DHT22;6764;53.250;10.410;2024-01-27T04:26:38;7.10;99.90
13389;DHT22;6764;53.250;10.410;2024-01-27T04:29:04;7.20;99.90
13389;DHT22;6764;53.250;10.410;2024-01-27T04:31:30;7.20;99.90
13389;DHT22;6764;53.250;10.410;2024-01-27T04:33:57;7.10;99.90
13389;DHT22;6764;53.250;10.410;2024-01-27T04:36:29;7.20;99.90
13389;DHT22;6764;53.250;10.410;2024-01-27T04:38:55;7.20;99.90
13389;DHT22;6764;53.250;10.410;2024-01-27T04:41:21;7.30;99.90
13389;DHT22;6764;53.250;10.410;2024-01-27T04:43:46;7.40;99.90
13389;DHT22;6764;53.250;10.410;2024-01-27T04:46:12;7.50;99.90
13389;DHT22;6764;53.250;10.410;2024-01-27T04:48:38;7.50;99.90
13389;DHT22;6764;53.250;10.410;2024-01-27T04:51:03;7.40;99.90
13389;DHT22;6764;53.250;10.410;2024-01-27T04:53:29;7.30;99.90
13389;DHT22;6764;53.250;10.410;2024-01-27T04:55:54;7.30;99.90
13389;DHT22;6764;53.250;10.410;2024-01-27T04:58:20;7.00;99.90
13389;DHT22;6764;53.250;10.410;2024-01-27T05:00:46;7.10;99.90
13389;DHT22;6764;53.250;10.410;2024-01-27T05:03:12;7.10;99.90
13389;DHT22;6764;53.250;10.410;2024-01-27T05:05:42;7.00;99.90
13389;DHT22;6764;53.250;10.410;2024-01-27T05:08:08;7.10;99.90
13389;DHT22;6764;53.250;10.410;2024-01-27T05:10:35;7.10;99.90
13389;DHT22;6764;53.250;10.410;2024-01-27T05:13:01;7.00;99.90
13389;DHT22;6764;53.250;10.410;2024-01-27T05:15:26;7.00;99.90
13389;DHT22;6764;53.250;10.410;2024-01-27T05:17:52;6.90;99.90
13389;DHT22;6764;53.250;10.410;2024-01-27T05:20:19;6.90;99.90
13389;DHT22;6764;53.250;10.410;2024-01-27T05:22:45;6.90;99.90
13389;DHT22;6764;53.250;10.410;2024-01-27T05:25:11;6.90;99.90
13389;DHT22;6764;53.250;10.410;2024-01-27T05:27:40;6.90;99.90
13389;DHT22;6764;53.250;10.410;2024-01-27T05:30:06;6.90;99.90
13389;DHT22;6764;53.250;10.410;2024-01-27T05:32:32;6.70;99.90
13389;DHT22;6764;53.250;10.410;2024-01-27T05:34:57;6.60;99.90
13389;DHT22;6764;53.250;10.410;2024-01-27T05:37:23;6.60;99.90
13389;DHT22;6764;53.250;10.410;2024-01-27T05:39:49;6.40;99.90
13389;DHT22;6764;53.250;10.410;2024-01-27T05:42:14;6.60;99.90
13389;DHT22;6764;53.250;10.410;2024-01-27T05:44:40;6.60;99.90
13389;DHT22;6764;53.250;10.410;2024-01-27T05:47:06;6.60;99.90
13389;DHT22;6764;53.250;10.410;2024-01-27T05:49:32;6.60;99.90
13389;DHT22;6764;53.250;10.410;2024-01-27T05:51:58;6.60;99.90
13389;DHT22;6764;53.250;10.410;2024-01-27T05:54:24;6.50;99.90
13389;DHT22;6764;53.250;10.410;2024-01-27T05:56:50;6.50;99.90
13389;DHT22;6764;53.250;10.410;2024-01-27T05:59:15;6.60;99.90
13389;DHT22;6764;53.250;10.410;2024-01-27T06:01:41;6.60;99.90
13389;DHT22;6764;53.250;10.410;2024-01-27T06:04:09;6.60;99.90
13389;DHT22;6764;53.250;10.410;2024-01-27T06:06:34;6.60;99.90
13389;DHT22;6764;53.250;10.410;2024-01-27T06:09:03;6.60;99.90
13389;DHT22;6764;53.250;10.410;2024-01-27T06:11:29;6.60;99.90
13389;DHT22;6764;53.250;10.410;2024-01-27T06:13:55;6.60;99.90
13389;DHT22;6764;53.250;10.410;2024-01-27T06:16:21;6.60;99.90
13389;DHT22;6764;53.250;10.410;2024-01-27T06:18:46;6.50;99.90
13389;DHT22;6764;53.250;10.410;2024-01-27T06:21:12;6.20;99.90
13389;DHT22;6764;53.250;10.410;2024-01-27T06:23:38;6.20;99.90
13389;DHT22;6764;53.250;10.410;2024-01-27T06:26:07;6.30;99.90
13389;DHT22;6764;53.250;10.410;2024-01-27T06:28:32;6.40;99.90
13389;DHT22;6764;53.250;10.410;2024-01-27T06:31:03;6.40;99.90
13389;DHT22;6764;53.250;10.410;2024-01-27T06:33:29;6.40;99.90
13389;DHT22;6764;53.250;10.410;2024-01-27T06:35:55;6.40;99.90
13389;DHT22;6764;53.250;10.410;2024-01-27T06:38:20;6.30;99.90
13389;DHT22;6764;53.250;10.410;2024-01-27T06:40:46;6.40;99.90
13389;DHT22;6764;53.250;10.410;2024-01-27T06:43:13;6.20;99.90
13389;DHT22;6764;53.250;10.410;2024-01-27T06:45:39;6.20;99.90
13389;DHT22;6764;53.250;10.410;2024-01-27T06:48:05;6.30;99.90
13389;DHT22;6764;53.250;10.410;2024-01-27T06:50:32;6.20;99.90
13389;DHT22;6764;53.250;10.410;2024-01-27T06:52:58;6.20;99.90
13389;DHT22;6764;53.250;10.410;2024-01-27T06:55:23;6.30;99.90
13389;DHT22;6764;53.250;10.410;2024-01-27T06:57:49;6.40;99.90
13389;DHT22;6764;53.250;10.410;2024-01-27T07:00:15;6.40;99.90
13389;DHT22;6764;53.250;10.410;2024-01-27T07:02:41;6.50;99.90
13389;DHT22;6764;53.250;10.410;2024-01-27T07:05:08;6.60;99.90
13389;DHT22;6764;53.250;10.410;2024-01-27T07:07:34;6.50;99.90
13389;DHT22;6764;53.250;10.410;2024-01-27T07:09:59;6.40;99.90
13389;DHT22;6764;53.250;10.410;2024-01-27T07:12:25;6.30;99.90
13389;DHT22;6764;53.250;10.410;2024-01-27T07:14:50;6.20;99.90
13389;DHT22;6764;53.250;10.410;2024-01-27T07:17:22;6.10;99.90
13389;DHT22;6764;53.250;10.410;2024-01-27T07:19:48;6.00;99.90
13389;DHT22;6764;53.250;10.410;2024-01-27T07:22:13;6.00;99.90
13389;DHT22;6764;53.250;10.410;2024-01-27T07:24:39;6.00;99.90
13389;DHT22;6764;53.250;10.410;2024-01-27T07:27:05;6.00;99.90
13389;DHT22;6764;53.250;10.410;2024-01-27T07:29:30;6.00;99.90
13389;DHT22;6764;53.250;10.410;2024-01-27T07:31:56;6.20;99.90
13389;DHT22;6764;53.250;10.410;2024-01-27T07:34:21;6.00;99.90
13389;DHT22;6764;53.250;10.410;2024-01-27T07:36:47;6.10;99.90
13389;DHT22;6764;53.250;10.410;2024-01-27T07:39:15;6.10;99.90
13389;DHT22;6764;53.250;10.410;2024-01-27T07:41:40;6.20;99.90
13389;DHT22;6764;53.250;10.410;2024-01-27T07:44:10;6.20;99.90
13389;DHT22;6764;53.250;10.410;2024-01-27T07:46:40;6.20;99.90
13389;DHT22;6764;53.250;10.410;2024-01-27T07:49:09;6.10;99.90
13389;DHT22;6764;53.250;10.410;2024-01-27T07:51:35;6.20;99.90
13389;DHT22;6764;53.250;10.410;2024-01-27T07:54:01;6.10;99.90
13389;DHT22;6764;53.250;10.410;2024-01-27T07:56:27;6.20;99.90
13389;DHT22;6764;53.250;10.410;2024-01-27T07:58:53;6.20;99.90
13389;DHT22;6764;53.250;10.410;2024-01-27T08:01:19;6.10;99.90
13389;DHT22;6764;53.250;10.410;2024-01-27T08:03:45;6.10;99.90
13389;DHT22;6764;53.250;10.410;2024-01-27T08:06:19;6.00;99.90
13389;DHT22;6764;53.250;10.410;2024-01-27T08:08:48;5.90;99.90
13389;DHT22;6764;53.250;10.410;2024-01-27T08:11:14;6.00;99.90
13389;DHT22;6764;53.250;10.410;2024-01-27T08:13:41;6.00;99.90
13389;DHT22;6764;53.250;10.410;2024-01-27T08:16:07;5.90;99.90
13389;DHT22;6764;53.250;10.410;2024-01-27T08:18:35;5.90;99.90
13389;DHT22;6764;53.250;10.410;2024-01-27T08:21:03;5.90;99.90
13389;DHT22;6764;53.250;10.410;2024-01-27T08:23:28;6.00;99.90
13389;DHT22;6764;53.250;10.410;2024-01-27T08:25:54;6.00;99.90
13389;DHT22;6764;53.250;10.410;2024-01-27T08:28:19;6.10;99.90
13389;DHT22;6764;53.250;10.410;2024-01-27T08:30:45;5.90;99.90
13389;DHT22;6764;53.250;10.410;2024-01-27T08:33:11;6.00;99.90
13389;DHT22;6764;53.250;10.410;2024-01-27T08:35:36;6.10;99.90
13389;DHT22;6764;53.250;10.410;2024-01-27T08:38:02;6.10;99.90
13389;DHT22;6764;53.250;10.410;2024-01-27T08:40:29;6.10;99.90
13389;DHT22;6764;53.250;10.410;2024-01-27T08:42:55;6.10;99.90
13389;DHT22;6764;53.250;10.410;2024-01-27T08:45:20;6.20;99.90
13389;DHT22;6764;53.250;10.410;2024-01-27T08:47:46;6.20;99.90
13389;DHT22;6764;53.250;10.410;2024-01-27T08:50:12;6.30;99.90
13389;DHT22;6764;53.250;10.410;2024-01-27T08:52:37;6.40;99.90
13389;DHT22;6764;53.250;10.410;2024-01-27T08:55:03;6.20;99.90
13389;DHT22;6764;53.250;10.410;2024-01-27T08:57:29;6.30;99.90
13389;DHT22;6764;53.250;10.410;2024-01-27T08:59:55;6.40;99.90
13389;DHT22;6764;53.250;10.410;2024-01-27T09:02:20;6.30;99.90
13389;DHT22;6764;53.250;10.410;2024-01-27T09:04:46;6.50;99.90
13389;DHT22;6764;53.250;10.410;2024-01-27T09:07:12;6.50;99.90
13389;DHT22;6764;53.250;10.410;2024-01-27T09:09:37;6.70;99.90
13389;DHT22;6764;53.250;10.410;2024-01-27T09:12:06;6.50;99.90
13389;DHT22;6764;53.250;10.410;2024-01-27T09:14:32;6.60;99.90
13389;DHT22;6764;53.250;10.410;2024-01-27T09:16:59;6.60;99.90
13389;DHT22;6764;53.250;10.410;2024-01-27T09:19:25;6.60;99.90
13389;DHT22;6764;53.250;10.410;2024-01-27T09:21:51;6.40;99.90
13389;DHT22;6764;53.250;10.410;2024-01-27T09:24:16;6.50;99.90
13389;DHT22;6764;53.250;10.410;2024-01-27T09:26:42;6.60;99.90
13389;DHT22;6764;53.250;10.410;2024-01-27T09:29:07;6.60;99.90
13389;DHT22;6764;53.250;10.410;2024-01-27T09:31:34;6.70;99.90
13389;DHT22;6764;53.250;10.410;2024-01-27T09:34:00;6.80;99.90
13389;DHT22;6764;53.250;10.410;2024-01-27T09:36:26;6.80;99.90
13389;DHT22;6764;53.250;10.410;2024-01-27T09:38:51;6.90;99.90
13389;DHT22;6764;53.250;10.410;2024-01-27T09:41:17;7.10;99.90
13389;DHT22;6764;53.250;10.410;2024-01-27T09:43:44;7.20;99.90
13389;DHT22;6764;53.250;10.410;2024-01-27T09:46:19;7.10;99.90
13389;DHT22;6764;53.250;10.410;2024-01-27T09:48:45;7.20;99.90
13389;DHT22;6764;53.250;10.410;2024-01-27T09:51:11;7.30;99.90
13389;DHT22;6764;53.250;10.410;2024-01-27T09:53:37;7.30;99.90
13389;DHT22;6764;53.250;10.410;2024-01-27T09:56:03;7.20;99.90
13389;DHT22;6764;53.250;10.410;2024-01-27T09:58:30;7.20;99.90
13389;DHT22;6764;53.250;10.410;2024-01-27T10:00:57;7.20;99.90
13389;DHT22;6764;53.250;10.410;2024-01-27T10:03:27;7.40;99.90
13389;DHT22;6764;53.250;10.410;2024-01-27T10:05:55;7.40;99.90
13389;DHT22;6764;53.250;10.410;2024-01-27T10:08:21;7.50;99.90
13389;DHT22;6764;53.250;10.410;2024-01-27T10:10:49;7.50;99.90
13389;DHT22;6764;53.250;10.410;2024-01-27T10:13:16;7.60;99.90
13389;DHT22;6764;53.250;10.410;2024-01-27T10:15:43;7.70;99.90
13389;DHT22;6764;53.250;10.410;2024-01-27T10:18:09;7.70;99.90
13389;DHT22;6764;53.250;10.410;2024-01-27T10:20:40;7.70;99.90
13389;DHT22;6764;53.250;10.410;2024-01-27T10:23:12;7.70;99.90
13389;DHT22;6764;53.250;10.410;2024-01-27T10:25:39;7.80;99.90
13389;DHT22;6764;53.250;10.410;2024-01-27T10:28:06;7.80;99.90
13389;DHT22;6764;53.250;10.410;2024-01-27T10:30:33;7.70;99.90
13389;DHT22;6764;53.250;10.410;2024-01-27T10:32:59;7.80;99.90
13389;DHT22;6764;53.250;10.410;2024-01-27T10:35:25;7.60;99.90
13389;DHT22;6764;53.250;10.410;2024-01-27T10:37:52;7.80;99.90
13389;DHT22;6764;53.250;10.410;2024-01-27T10:40:19;7.90;99.90
13389;DHT22;6764;53.250;10.410;2024-01-27T10:42:45;7.90;99.90
13389;DHT22;6764;53.250;10.410;2024-01-27T10:45:12;7.90;99.90
13389;DHT22;6764;53.250;10.410;2024-01-27T10:47:39;8.00;99.90
13389;DHT22;6764;53.250;10.410;2024-01-27T10:50:09;8.20;99.90
13389;DHT22;6764;53.250;10.410;2024-01-27T10:52:38;8.30;99.90
13389;DHT22;6764;53.250;10.410;2024-01-27T10:55:07;8.30;99.90
13389;DHT22;6764;53.250;10.410;2024-01-27T10:57:36;8.30;99.90
13389;DHT22;6764;53.250;10.410;2024-01-27T11:00:04;8.30;99.90
13389;DHT22;6764;53.250;10.410;2024-01-27T11:02:35;8.30;99.90
13389;DHT22;6764;53.250;10.410;2024-01-27T11:05:05;8.20;99.90
13389;DHT22;6764;53.250;10.410;2024-01-27T11:07:33;8.20;99.90
13389;DHT22;6764;53.250;10.410;2024-01-27T11:10:00;8.30;99.90
13389;DHT22;6764;53.250;10.410;2024-01-27T11:12:26;8.50;99.90
13389;DHT22;6764;53.250;10.410;2024-01-27T11:14:52;8.50;99.90
13389;DHT22;6764;53.250;10.410;2024-01-27T11:17:19;8.60;99.90
13389;DHT22;6764;53.250;10.410;2024-01-27T11:19:45;8.60;99.90
13389;DHT22;6764;53.250;10.410;2024-01-27T11:22:24;8.60;99.90
13389;DHT22;6764;53.250;10.410;2024-01-27T11:24:52;8.70;99.90
13389;DHT22;6764;53.250;10.410;2024-01-27T11:27:17;8.90;99.90
13389;DHT22;6764;53.250;10.410;2024-01-27T11:29:49;9.00;99.90
13389;DHT22;6764;53.250;10.410;2024-01-27T11:32:15;9.00;99.90
13389;DHT22;6764;53.250;10.410;2024-01-27T11:34:44;9.10;99.90
13389;DHT22;6764;53.250;10.410;2024-01-27T11:37:14;9.00;99.90
13389;DHT22;6764;53.250;10.410;2024-01-27T11:39:40;8.90;99.90
13389;DHT22;6764;53.250;10.410;2024-01-27T11:42:10;8.70;99.90
13389;DHT22;6764;53.250;10.410;2024-01-27T11:44:40;8.70;99.90
13389;DHT22;6764;53.250;10.410;2024-01-27T11:47:14;8.70;99.90
13389;DHT22;6764;53.250;10.410;2024-01-27T11:49:42;8.70;99.90
13389;DHT22;6764;53.250;10.410;2024-01-27T11:52:08;8.80;99.90
13389;DHT22;6764;53.250;10.410;2024-01-27T11:54:33;8.90;99.90
13389;DHT22;6764;53.250;10.410;2024-01-27T11:57:00;8.90;99.90
13389;DHT22;6764;53.250;10.410;2024-01-27T11:59:27;9.00;99.90
13389;DHT22;6764;53.250;10.410;2024-01-27T12:01:52;9.10;99.90
13389;DHT22;6764;53.250;10.410;2024-01-27T12:04:18;9.20;99.90
13389;DHT22;6764;53.250;10.410;2024-01-27T12:06:45;9.20;99.90
13389;DHT22;6764;53.250;10.410;2024-01-27T12:09:10;9.10;99.90
13389;DHT22;6764;53.250;10.410;2024-01-27T12:11:40;9.10;99.90
13389;DHT22;6764;53.250;10.410;2024-01-27T12:14:06;9.00;99.90
13389;DHT22;6764;53.250;10.410;2024-01-27T12:16:32;9.00;99.90
13389;DHT22;6764;53.250;10.410;2024-01-27T12:18:57;9.00;99.90
13389;DHT22;6764;53.250;10.410;2024-01-27T12:21:23;9.10;99.90
13389;DHT22;6764;53.250;10.410;2024-01-27T12:23:53;9.20;99.90
13389;DHT22;6764;53.250;10.410;2024-01-27T12:26:23;9.10;99.90
13389;DHT22;6764;53.250;10.410;2024-01-27T12:28:49;9.20;99.90
13389;DHT22;6764;53.250;10.410;2024-01-27T12:31:16;9.10;99.90
13389;DHT22;6764;53.250;10.410;2024-01-27T12:33:55;9.20;99.90
13389;DHT22;6764;53.250;10.410;2024-01-27T12:36:22;9.30;99.90
13389;DHT22;6764;53.250;10.410;2024-01-27T12:39:08;9.40;99.90
13389;DHT22;6764;53.250;10.410;2024-01-27T12:41:34;9.30;99.90
13389;DHT22;6764;53.250;10.410;2024-01-27T12:44:01;9.40;99.90
13389;DHT22;6764;53.250;10.410;2024-01-27T12:46:30;9.30;99.90
13389;DHT22;6764;53.250;10.410;2024-01-27T12:48:56;9.30;99.90
13389;DHT22;6764;53.250;10.410;2024-01-27T12:51:22;9.40;99.90
13389;DHT22;6764;53.250;10.410;2024-01-27T12:53:48;9.30;99.90
13389;DHT22;6764;53.250;10.410;2024-01-27T12:56:14;9.40;99.90
13389;DHT22;6764;53.250;10.410;2024-01-27T12:58:41;9.40;99.90
13389;DHT22;6764;53.250;10.410;2024-01-27T13:01:08;9.50;99.90
13389;DHT22;6764;53.250;10.410;2024-01-27T13:03:34;9.60;99.90
13389;DHT22;6764;53.250;10.410;2024-01-27T13:06:00;9.60;99.90
13389;DHT22;6764;53.250;10.410;2024-01-27T13:08:26;9.70;99.90
13389;DHT22;6764;53.250;10.410;2024-01-27T13:10:52;9.70;99.90
13389;DHT22;6764;53.250;10.410;2024-01-27T13:13:18;9.60;99.90
13389;DHT22;6764;53.250;10.410;2024-01-27T13:15:44;9.60;99.90
13389;DHT22;6764;53.250;10.410;2024-01-27T13:18:10;9.80;99.90
13389;DHT22;6764;53.250;10.410;2024-01-27T13:20:36;9.80;99.90
13389;DHT22;6764;53.250;10.410;2024-01-27T13:23:02;10.00;99.90
13389;DHT22;6764;53.250;10.410;2024-01-27T13:25:28;9.80;99.90
13389;DHT22;6764;53.250;10.410;2024-01-27T13:27:54;9.60;99.90
13389;DHT22;6764;53.250;10.410;2024-01-27T13:30:21;9.70;99.90
13389;DHT22;6764;53.250;10.410;2024-01-27T13:32:47;9.60;99.90
13389;DHT22;6764;53.250;10.410;2024-01-27T13:35:12;9.60;99.90
13389;DHT22;6764;53.250;10.410;2024-01-27T13:37:38;9.70;99.90
13389;DHT22;6764;53.250;10.410;2024-01-27T13:40:05;9.80;99.90
13389;DHT22;6764;53.250;10.410;2024-01-27T13:42:33;9.80;99.90
13389;DHT22;6764;53.250;10.410;2024-01-27T13:44:58;10.00;99.90
13389;DHT22;6764;53.250;10.410;2024-01-27T13:47:24;9.90;99.90
13389;DHT22;6764;53.250;10.410;2024-01-27T13:49:50;10.00;99.90
13389;DHT22;6764;53.250;10.410;2024-01-27T13:52:16;9.90;99.90
13389;DHT22;6764;53.250;10.410;2024-01-27T13:54:41;9.90;99.90
13389;DHT22;6764;53.250;10.410;2024-01-27T13:57:07;10.10;99.90
13389;DHT22;6764;53.250;10.410;2024-01-27T13:59:34;10.20;99.90
13389;DHT22;6764;53.250;10.410;2024-01-27T14:02:00;10.30;99.90
13389;DHT22;6764;53.250;10.410;2024-01-27T14:04:25;10.30;99.90
13389;DHT22;6764;53.250;10.410;2024-01-27T14:06:52;10.20;99.90
13389;DHT22;6764;53.250;10.410;2024-01-27T14:09:21;10.00;99.90
13389;DHT22;6764;53.250;10.410;2024-01-27T14:11:47;10.00;99.90
13389;DHT22;6764;53.250;10.410;2024-01-27T14:14:13;10.00;99.90
13389;DHT22;6764;53.250;10.410;2024-01-27T14:16:39;9.90;99.90
13389;DHT22;6764;53.250;10.410;2024-01-27T14:19:05;9.90;99.90
13389;DHT22;6764;53.250;10.410;2024-01-27T14:21:32;9.90;99.90
13389;DHT22;6764;53.250;10.410;2024-01-27T14:23:57;9.90;99.90
13389;DHT22;6764;53.250;10.410;2024-01-27T14:26:28;9.80;99.90
13389;DHT22;6764;53.250;10.410;2024-01-27T14:28:54;9.80;99.90
13389;DHT22;6764;53.250;10.410;2024-01-27T14:31:20;9.80;99.90
13389;DHT22;6764;53.250;10.410;2024-01-27T14:33:46;9.70;99.90
13389;DHT22;6764;53.250;10.410;2024-01-27T14:36:12;9.70;99.90
13389;DHT22;6764;53.250;10.410;2024-01-27T14:38:38;9.80;99.90
13389;DHT22;6764;53.250;10.410;2024-01-27T14:41:04;9.90;99.90
13389;DHT22;6764;53.250;10.410;2024-01-27T14:43:31;9.90;99.90
13389;DHT22;6764;53.250;10.410;2024-01-27T14:45:56;9.70;99.90
13389;DHT22;6764;53.250;10.410;2024-01-27T14:48:22;9.80;99.90
13389;DHT22;6764;53.250;10.410;2024-01-27T14:50:48;9.80;99.90
13389;DHT22;6764;53.250;10.410;2024-01-27T14:53:18;9.90;99.90
13389;DHT22;6764;53.250;10.410;2024-01-27T14:55:44;9.90;99.90
13389;DHT22;6764;53.250;10.410;2024-01-27T14:58:10;9.80;99.90
13389;DHT22;6764;53.250;10.410;2024-01-27T15:00:36;9.80;99.90
13389;DHT22;6764;53.250;10.410;2024-01-27T15:03:05;9.80;99.90
13389;DHT22;6764;53.250;10.410;2024-01-27T15:05:31;9.70;99.90
13389;DHT22;6764;53.250;10.410;2024-01-27T15:07:58;9.50;99.90
13389;DHT22;6764;53.250;10.410;2024-01-27T15:10:24;9.40;99.90
13389;DHT22;6764;53.250;10.410;2024-01-27T15:12:50;9.50;99.90
13389;DHT22;6764;53.250;10.410;2024-01-27T15:15:15;9.50;99.90
13389;DHT22;6764;53.250;10.410;2024-01-27T15:17:41;9.30;99.90
13389;DHT22;6764;53.250;10.410;2024-01-27T15:20:07;9.20;99.90
13389;DHT22;6764;53.250;10.410;2024-01-27T15:22:32;9.20;99.90
13389;DHT22;6764;53.250;10.410;2024-01-27T15:24:58;9.40;99.90
13389;DHT22;6764;53.250;10.410;2024-01-27T15:27:23;9.40;99.90
13389;DHT22;6764;53.250;10.410;2024-01-27T15:29:49;9.50;99.90
13389;DHT22;6764;53.250;10.410;2024-01-27T15:32:15;9.50;99.90
13389;DHT22;6764;53.250;10.410;2024-01-27T15:34:46;9.50;99.90
13389;DHT22;6764;53.250;10.410;2024-01-27T15:37:12;9.40;99.90
13389;DHT22;6764;53.250;10.410;2024-01-27T15:39:37;9.40;99.90